createdAt,value
2018-12-15T00:00:41.835Z,13.17
2018-12-15T00:03:14.687Z,15.37
2018-12-15T00:05:46.826Z,14.53
2018-12-15T00:08:17.151Z,14.00
2018-12-15T00:10:47.444Z,13.57
2018-12-15T00:13:17.624Z,11.93
2018-12-15T00:15:47.942Z,12.30
2018-12-15T00:18:18.123Z,12.20
2018-12-15T00:20:48.411Z,11.73
2018-12-15T00:23:18.795Z,11.17
2018-12-15T00:25:48.887Z,10.47
2018-12-15T00:28:19.081Z,8.97
2018-12-15T00:30:49.287Z,9.33
2018-12-15T00:33:19.410Z,8.87
2018-12-15T00:35:49.735Z,9.40
2018-12-15T00:38:19.830Z,9.13
2018-12-15T00:40:50.103Z,8.30
2018-12-15T00:43:20.393Z,8.53
2018-12-15T00:45:50.628Z,8.43
2018-12-15T00:48:21.567Z,8.83
2018-12-15T00:50:51.899Z,9.73
2018-12-15T00:53:22.080Z,9.00
2018-12-15T00:55:52.329Z,9.10
2018-12-15T00:58:22.641Z,8.90
2018-12-15T01:00:52.859Z,8.57
2018-12-15T01:03:23.238Z,9.17
2018-12-15T01:05:53.644Z,8.73
2018-12-15T01:08:23.881Z,9.63
2018-12-15T01:10:54.172Z,9.13
2018-12-15T01:13:24.543Z,11.10
2018-12-15T01:15:54.829Z,13.27
2018-12-15T01:18:24.946Z,12.47
2018-12-15T01:20:55.211Z,12.20
2018-12-15T01:23:25.453Z,11.53
2018-12-15T01:25:56.387Z,10.77
2018-12-15T01:28:27.101Z,10.70
2018-12-15T01:30:57.324Z,11.27
2018-12-15T01:33:27.589Z,10.70
2018-12-15T01:35:57.920Z,10.87
2018-12-15T01:38:28.177Z,11.80
2018-12-15T01:40:58.459Z,10.17
2018-12-15T01:43:28.637Z,9.90
2018-12-15T01:45:59.041Z,9.57
2018-12-15T01:48:29.310Z,9.00
2018-12-15T01:50:59.871Z,9.50
2018-12-15T01:53:30.165Z,8.03
2018-12-15T01:56:00.377Z,8.80
2018-12-15T01:58:30.642Z,8.63
2018-12-15T02:01:00.859Z,9.23
2018-12-15T02:03:30.956Z,8.53
2018-12-15T02:06:01.280Z,8.50
2018-12-15T02:08:31.453Z,8.33
2018-12-15T02:11:03.561Z,8.60
2018-12-15T02:13:33.788Z,9.70
2018-12-15T02:16:04.402Z,8.70
2018-12-15T02:18:35.080Z,9.00
2018-12-15T02:21:05.331Z,8.60
2018-12-15T02:23:35.512Z,8.90
2018-12-15T02:26:05.755Z,9.07
2018-12-15T02:28:35.940Z,8.93
2018-12-15T02:31:06.354Z,7.80
2018-12-15T02:33:36.616Z,8.97
2018-12-15T02:36:07.003Z,9.13
2018-12-15T02:38:37.316Z,8.80
2018-12-15T02:41:07.764Z,8.63
2018-12-15T02:43:38.439Z,8.23
2018-12-15T02:46:08.998Z,9.23
2018-12-15T02:48:39.248Z,8.33
2018-12-15T02:51:10.417Z,9.67
2018-12-15T02:53:40.713Z,8.87
2018-12-15T02:56:11.304Z,8.67
2018-12-15T02:58:41.459Z,8.90
2018-12-15T03:01:11.781Z,9.03
2018-12-15T03:03:41.988Z,9.93
2018-12-15T03:06:12.241Z,9.10
2018-12-15T03:08:42.482Z,10.23
2018-12-15T03:11:12.713Z,9.67
2018-12-15T03:13:42.990Z,10.07
2018-12-15T03:16:13.442Z,9.20
2018-12-15T03:18:43.659Z,8.30
2018-12-15T03:21:14.004Z,8.53
2018-12-15T03:23:44.862Z,9.27
2018-12-15T03:26:15.470Z,9.90
2018-12-15T03:28:45.676Z,9.13
2018-12-15T03:31:15.902Z,9.33
2018-12-15T03:33:46.173Z,9.10
2018-12-15T03:36:16.450Z,9.17
2018-12-15T03:38:46.714Z,9.20
2018-12-15T03:41:16.970Z,10.30
2018-12-15T03:43:47.085Z,9.20
2018-12-15T03:46:17.155Z,10.40
2018-12-15T03:48:47.316Z,9.73
2018-12-15T03:51:17.986Z,10.90
2018-12-15T03:53:48.146Z,10.90
2018-12-15T03:56:18.274Z,10.37
2018-12-15T03:58:48.532Z,11.47
2018-12-15T04:01:18.589Z,11.50
2018-12-15T04:03:48.855Z,11.53
2018-12-15T04:06:19.141Z,12.50
2018-12-15T04:08:49.324Z,12.00
2018-12-15T04:11:19.900Z,11.87
2018-12-15T04:13:50.016Z,11.93
2018-12-15T04:16:20.242Z,14.70
2018-12-15T04:18:50.426Z,12.37
2018-12-15T04:21:20.803Z,11.00
2018-12-15T04:23:51.114Z,10.93
2018-12-15T04:26:21.312Z,11.17
2018-12-15T04:28:53.334Z,9.47
2018-12-15T04:31:23.522Z,10.30
2018-12-15T04:33:53.704Z,9.70
2018-12-15T04:36:23.837Z,9.27
2018-12-15T04:38:54.040Z,10.80
2018-12-15T04:41:24.270Z,11.20
2018-12-15T04:43:54.524Z,11.70
2018-12-15T04:46:24.745Z,11.77
2018-12-15T04:48:54.875Z,11.27
2018-12-15T04:51:25.137Z,9.47
2018-12-15T04:53:55.539Z,10.00
2018-12-15T04:56:25.854Z,10.57
2018-12-15T04:58:56.192Z,10.37
2018-12-15T05:01:26.401Z,10.53
2018-12-15T05:03:56.615Z,9.50
2018-12-15T05:06:27.523Z,8.80
2018-12-15T05:08:57.717Z,8.83
2018-12-15T05:11:27.987Z,13.13
2018-12-15T05:13:58.202Z,9.80
2018-12-15T05:16:28.649Z,9.30
2018-12-15T05:18:58.881Z,10.00
2018-12-15T05:21:29.298Z,9.33
2018-12-15T05:23:59.618Z,12.67
2018-12-15T05:26:29.742Z,31.10
2018-12-15T05:29:01.161Z,11.33
2018-12-15T05:31:32.164Z,13.47
2018-12-15T05:34:02.403Z,18.87
2018-12-15T05:36:33.603Z,12.80
2018-12-15T05:39:05.102Z,14.07
2018-12-15T05:41:36.390Z,10.40
2018-12-15T05:44:06.501Z,11.10
2018-12-15T05:46:36.788Z,10.90
2018-12-15T05:49:06.903Z,10.90
2018-12-15T05:51:37.221Z,11.07
2018-12-15T05:54:07.481Z,10.97
2018-12-15T05:56:37.577Z,12.37
2018-12-15T05:59:07.811Z,14.83
2018-12-15T06:01:38.805Z,13.00
2018-12-15T06:04:08.914Z,13.13
2018-12-15T06:06:39.045Z,24.13
2018-12-15T06:09:09.461Z,14.43
2018-12-15T06:11:39.773Z,13.33
2018-12-15T06:14:10.704Z,12.80
2018-12-15T06:16:40.929Z,13.03
2018-12-15T06:19:11.149Z,29.27
2018-12-15T06:21:41.231Z,16.90
2018-12-15T06:24:11.585Z,18.23
2018-12-15T06:26:41.932Z,13.53
2018-12-15T06:29:12.080Z,13.27
2018-12-15T06:31:42.702Z,13.07
2018-12-15T06:34:12.658Z,12.57
2018-12-15T06:36:42.637Z,19.47
2018-12-15T06:39:12.619Z,31.60
2018-12-15T06:41:42.598Z,42.17
2018-12-15T06:44:12.584Z,14.53
2018-12-15T06:46:42.877Z,13.93
2018-12-15T06:49:13.237Z,14.17
2018-12-15T06:51:44.214Z,14.47
2018-12-15T06:54:14.554Z,13.17
2018-12-15T06:56:44.754Z,12.90
2018-12-15T06:59:15.012Z,11.60
2018-12-15T07:01:45.264Z,12.20
2018-12-15T07:04:15.459Z,12.30
2018-12-15T07:06:45.626Z,11.90
2018-12-15T07:09:15.787Z,12.07
2018-12-15T07:11:46.283Z,11.73
2018-12-15T07:14:16.411Z,13.73
2018-12-15T07:16:46.715Z,11.87
2018-12-15T07:19:17.035Z,12.37
2018-12-15T07:21:47.293Z,13.57
2018-12-15T07:24:17.560Z,16.50
2018-12-15T07:26:47.747Z,15.13
2018-12-15T07:29:18.089Z,18.53
2018-12-15T07:31:48.192Z,14.47
2018-12-15T07:34:18.454Z,13.07
2018-12-15T07:36:48.761Z,15.33
2018-12-15T07:39:19.066Z,12.97
2018-12-15T07:41:49.214Z,16.20
2018-12-15T07:44:19.465Z,36.80
2018-12-15T07:46:49.712Z,35.30
2018-12-15T07:49:20.015Z,31.90
2018-12-15T07:51:50.335Z,47.43
2018-12-15T07:54:20.775Z,46.63
2018-12-15T07:56:50.966Z,59.17
2018-12-15T07:59:21.109Z,87.20
2018-12-15T08:01:51.520Z,93.90
2018-12-15T08:04:21.817Z,92.43
2018-12-15T08:06:52.044Z,71.67
2018-12-15T08:09:22.398Z,68.50
2018-12-15T08:11:57.848Z,63.23
2018-12-15T08:14:28.359Z,45.53
2018-12-15T08:16:58.794Z,36.07
2018-12-15T08:19:29.706Z,26.87
2018-12-15T08:21:59.912Z,26.37
2018-12-15T08:24:30.120Z,28.17
2018-12-15T08:27:00.463Z,22.53
2018-12-15T08:29:30.924Z,20.07
2018-12-15T08:32:01.162Z,20.77
2018-12-15T08:34:31.344Z,19.20
2018-12-15T08:37:01.589Z,20.37
2018-12-15T08:39:31.725Z,16.23
2018-12-15T08:42:01.842Z,13.70
2018-12-15T08:44:32.249Z,10.67
2018-12-15T08:47:02.513Z,12.50
2018-12-15T08:49:32.891Z,10.77
2018-12-15T08:52:03.088Z,13.17
2018-12-15T08:54:33.348Z,11.47
2018-12-15T08:57:03.561Z,8.53
2018-12-15T08:59:33.744Z,10.07
2018-12-15T09:02:04.037Z,9.73
2018-12-15T09:04:34.298Z,10.50
2018-12-15T09:07:05.046Z,19.13
2018-12-15T09:09:35.188Z,10.00
2018-12-15T09:12:05.399Z,10.03
2018-12-15T09:14:36.805Z,9.83
2018-12-15T09:17:07.225Z,10.13
2018-12-15T09:19:37.712Z,9.43
2018-12-15T09:22:11.460Z,9.43
2018-12-15T09:24:41.324Z,7.60
2018-12-15T09:27:11.408Z,7.40
2018-12-15T09:29:41.500Z,6.43
2018-12-15T09:32:11.715Z,7.10
2018-12-15T09:34:41.990Z,7.40
2018-12-15T09:37:12.243Z,7.07
2018-12-15T09:39:43.606Z,8.70
2018-12-15T09:42:13.768Z,7.60
2018-12-15T09:44:43.929Z,7.63
2018-12-15T09:47:14.370Z,8.33
2018-12-15T09:49:44.729Z,7.30
2018-12-15T09:52:15.055Z,7.60
2018-12-15T09:54:45.359Z,8.00
2018-12-15T09:57:15.623Z,7.13
2018-12-15T09:59:46.021Z,7.20
2018-12-15T10:02:16.314Z,7.40
2018-12-15T10:04:46.592Z,7.80
2018-12-15T10:07:16.920Z,9.37
2018-12-15T10:09:47.325Z,7.60
2018-12-15T10:12:17.680Z,8.97
2018-12-15T10:14:47.858Z,10.63
2018-12-15T10:17:18.869Z,9.93
2018-12-15T10:19:49.147Z,8.23
2018-12-15T10:22:19.400Z,8.53
2018-12-15T10:24:49.682Z,7.90
2018-12-15T10:27:20.581Z,7.97
2018-12-15T10:29:56.244Z,8.07
2018-12-15T10:32:31.597Z,7.90
2018-12-15T10:35:01.850Z,7.60
2018-12-15T10:37:32.017Z,7.20
2018-12-15T10:40:03.211Z,10.10
2018-12-15T10:42:34.545Z,7.67
2018-12-15T10:45:05.239Z,7.43
2018-12-15T10:47:35.625Z,7.27
2018-12-15T10:50:06.976Z,7.13
2018-12-15T10:52:37.372Z,6.83
2018-12-15T10:55:09.078Z,7.47
2018-12-15T10:57:40.417Z,7.70
2018-12-15T11:00:17.933Z,7.70
2018-12-15T11:02:50.364Z,8.63
2018-12-15T11:05:20.779Z,8.27
2018-12-15T11:07:51.444Z,8.23
2018-12-15T11:10:21.730Z,9.83
2018-12-15T11:12:51.753Z,8.93
2018-12-15T11:15:22.000Z,8.23
2018-12-15T11:17:52.429Z,9.43
2018-12-15T11:20:22.698Z,8.27
2018-12-15T11:22:52.948Z,8.67
2018-12-15T11:25:23.267Z,8.73
2018-12-15T11:27:53.376Z,18.17
2018-12-15T11:30:23.718Z,15.83
2018-12-15T11:32:53.919Z,87.97
2018-12-15T11:35:24.185Z,12.87
2018-12-15T11:37:54.452Z,11.73
2018-12-15T11:40:24.728Z,16.33
2018-12-15T11:42:55.074Z,8.80
2018-12-15T11:45:25.216Z,9.47
2018-12-15T11:47:55.407Z,12.93
2018-12-15T11:50:26.893Z,10.67
2018-12-15T11:52:57.143Z,25.80
2018-12-15T11:55:27.383Z,9.33
2018-12-15T11:57:57.492Z,7.87
2018-12-15T12:00:28.684Z,7.80
2018-12-15T12:02:58.890Z,8.23
2018-12-15T12:05:29.111Z,8.13
2018-12-15T12:07:59.627Z,8.03
2018-12-15T12:10:29.972Z,8.10
2018-12-15T12:13:01.863Z,8.27
2018-12-15T12:15:32.504Z,8.10
2018-12-15T12:18:02.804Z,9.03
2018-12-15T12:20:35.162Z,9.03
2018-12-15T12:23:05.490Z,9.30
2018-12-15T12:25:37.672Z,9.10
2018-12-15T12:28:09.921Z,7.77
2018-12-15T12:30:40.088Z,8.93
2018-12-15T12:33:11.381Z,7.90
2018-12-15T12:35:41.577Z,8.70
2018-12-15T12:38:11.901Z,7.90
2018-12-15T12:40:42.068Z,8.70
2018-12-15T12:43:13.022Z,8.30
2018-12-15T12:45:43.344Z,8.83
2018-12-15T12:48:13.748Z,9.07
2018-12-15T12:50:44.011Z,8.83
2018-12-15T12:53:14.213Z,9.70
2018-12-15T12:55:45.195Z,9.80
2018-12-15T12:58:15.296Z,10.03
2018-12-15T13:00:45.612Z,9.17
2018-12-15T13:03:15.904Z,9.77
2018-12-15T13:05:46.172Z,9.90
2018-12-15T13:08:16.452Z,9.53
2018-12-15T13:10:46.673Z,8.30
2018-12-15T13:13:17.738Z,9.40
2018-12-15T13:15:47.971Z,8.93
2018-12-15T13:18:18.499Z,8.73
2018-12-15T13:20:48.820Z,9.17
2018-12-15T13:23:19.073Z,8.30
2018-12-15T13:25:49.436Z,8.60
2018-12-15T13:28:19.525Z,9.63
2018-12-15T13:30:49.863Z,9.00
2018-12-15T13:33:32.377Z,9.57
2018-12-15T13:36:02.844Z,9.30
2018-12-15T13:38:33.073Z,9.30
2018-12-15T13:41:03.419Z,9.17
2018-12-15T13:43:33.537Z,9.60
2018-12-15T13:46:03.936Z,9.10
2018-12-15T13:48:34.284Z,9.40
2018-12-15T13:51:04.494Z,10.70
2018-12-15T13:53:34.882Z,10.77
2018-12-15T13:56:05.185Z,10.20
2018-12-15T13:58:35.647Z,9.00
2018-12-15T14:01:06.121Z,9.30
2018-12-15T14:03:36.459Z,9.57
2018-12-15T14:06:06.640Z,10.20
2018-12-15T14:08:37.111Z,9.13
2018-12-15T14:11:07.598Z,10.00
2018-12-15T14:13:37.901Z,10.53
2018-12-15T14:16:08.175Z,9.90
2018-12-15T14:18:38.579Z,15.27
2018-12-15T14:21:08.811Z,14.70
2018-12-15T14:23:39.748Z,11.23
2018-12-15T14:26:09.969Z,11.77
2018-12-15T14:28:40.352Z,10.73
2018-12-15T14:31:10.571Z,12.00
2018-12-15T14:33:40.720Z,11.80
2018-12-15T14:36:11.722Z,13.23
2018-12-15T14:38:42.061Z,10.90
2018-12-15T14:41:12.292Z,11.50
2018-12-15T14:43:42.501Z,10.67
2018-12-15T14:46:12.746Z,10.40
2018-12-15T14:48:42.948Z,10.43
2018-12-15T14:51:13.183Z,15.40
2018-12-15T14:53:43.289Z,11.50
2018-12-15T14:56:13.945Z,11.00
2018-12-15T14:58:44.179Z,11.10
2018-12-15T15:01:15.132Z,10.27
2018-12-15T15:03:45.451Z,11.80
2018-12-15T15:06:15.624Z,10.07
2018-12-15T15:08:46.565Z,10.23
2018-12-15T15:11:16.998Z,9.90
2018-12-15T15:13:47.389Z,9.40
2018-12-15T15:16:17.770Z,11.80
2018-12-15T15:18:48.091Z,10.57
2018-12-15T15:21:18.505Z,10.50
2018-12-15T15:23:48.810Z,10.53
2018-12-15T15:26:19.081Z,10.93
2018-12-15T15:28:49.460Z,12.80
2018-12-15T15:31:19.924Z,12.87
2018-12-15T15:33:50.243Z,12.33
2018-12-15T15:36:20.609Z,11.03
2018-12-15T15:38:50.857Z,11.73
2018-12-15T15:41:21.146Z,12.13
2018-12-15T15:43:51.485Z,10.83
2018-12-15T15:46:21.863Z,9.67
2018-12-15T15:48:53.278Z,10.27
2018-12-15T15:51:24.279Z,10.90
2018-12-15T15:53:54.617Z,11.03
2018-12-15T15:56:25.039Z,11.13
2018-12-15T15:58:55.409Z,10.30
2018-12-15T16:01:25.702Z,12.30
2018-12-15T16:03:56.115Z,16.07
2018-12-15T16:06:26.559Z,13.27
2018-12-15T16:08:56.970Z,11.13
2018-12-15T16:11:29.160Z,10.87
2018-12-15T16:13:59.588Z,11.07
2018-12-15T16:16:34.996Z,10.47
2018-12-15T16:19:05.509Z,9.97
2018-12-15T16:21:35.653Z,11.00
2018-12-15T16:24:06.005Z,11.20
2018-12-15T16:26:37.354Z,11.47
2018-12-15T16:29:07.761Z,12.30
2018-12-15T16:31:38.240Z,12.07
2018-12-15T16:34:08.611Z,12.87
2018-12-15T16:36:39.018Z,11.47
2018-12-15T16:39:09.353Z,21.47
2018-12-15T16:41:42.376Z,19.30
2018-12-15T16:44:12.366Z,23.40
2018-12-15T16:46:42.577Z,15.13
2018-12-15T16:49:12.777Z,13.67
2018-12-15T16:51:43.153Z,13.30
2018-12-15T16:54:13.551Z,13.07
2018-12-15T16:56:43.924Z,12.63
2018-12-15T16:59:14.149Z,12.47
2018-12-15T17:01:44.683Z,11.37
2018-12-15T17:04:15.121Z,21.03
2018-12-15T17:06:45.418Z,32.23
2018-12-15T17:09:16.728Z,33.03
2018-12-15T17:11:47.099Z,33.53
2018-12-15T17:14:17.663Z,24.03
2018-12-15T17:16:47.957Z,21.50
2018-12-15T17:19:18.307Z,18.27
2018-12-15T17:21:48.755Z,15.53
2018-12-15T17:24:19.259Z,15.70
2018-12-15T17:26:49.566Z,11.47
2018-12-15T17:29:19.987Z,15.33
2018-12-15T17:31:50.324Z,16.23
2018-12-15T17:34:20.477Z,32.20
2018-12-15T17:36:50.803Z,12.03
2018-12-15T17:39:22.418Z,10.77
2018-12-15T17:41:52.904Z,19.53
2018-12-15T17:44:23.963Z,18.53
2018-12-15T17:46:54.164Z,10.90
2018-12-15T17:49:24.521Z,9.43
2018-12-15T17:51:54.712Z,12.77
2018-12-15T17:54:25.068Z,13.27
2018-12-15T17:56:55.464Z,15.70
2018-12-15T17:59:25.690Z,13.40
2018-12-15T18:01:55.934Z,14.60
2018-12-15T18:04:26.260Z,12.53
2018-12-15T18:06:56.436Z,12.67
2018-12-15T18:09:26.639Z,11.97
2018-12-15T18:11:56.879Z,12.43
2018-12-15T18:14:27.149Z,11.70
2018-12-15T18:16:57.530Z,12.07
2018-12-15T18:19:28.057Z,12.43
2018-12-15T18:21:58.213Z,13.83
2018-12-15T18:24:29.538Z,13.63
2018-12-15T18:26:59.766Z,17.10
2018-12-15T18:29:30.041Z,11.77
2018-12-15T18:32:00.472Z,10.17
2018-12-15T18:34:30.756Z,9.63
2018-12-15T18:37:00.936Z,9.47
2018-12-15T18:39:31.247Z,10.17
2018-12-15T18:42:01.631Z,9.83
2018-12-15T18:44:32.079Z,10.17
2018-12-15T18:47:02.351Z,9.67
2018-12-15T18:49:32.610Z,9.60
2018-12-15T18:52:02.863Z,9.27
2018-12-15T18:54:34.269Z,9.63
2018-12-15T18:57:04.999Z,10.30
2018-12-15T18:59:35.529Z,11.53
2018-12-15T19:02:06.024Z,12.67
2018-12-15T19:04:36.473Z,10.70
2018-12-15T19:07:06.782Z,9.53
2018-12-15T19:09:36.989Z,9.93
2018-12-15T19:12:07.366Z,9.67
2018-12-15T19:14:37.784Z,10.57
2018-12-15T19:17:08.154Z,11.10
2018-12-15T19:19:38.689Z,10.83
2018-12-15T19:22:08.913Z,9.33
2018-12-15T19:24:39.166Z,9.73
2018-12-15T19:27:09.530Z,8.37
2018-12-15T19:29:39.805Z,9.57
2018-12-15T19:32:11.079Z,9.43
2018-12-15T19:34:41.346Z,9.37
2018-12-15T19:37:11.583Z,9.40
2018-12-15T19:39:41.805Z,11.37
2018-12-15T19:42:12.015Z,9.83
2018-12-15T19:44:42.289Z,9.70
2018-12-15T19:47:12.464Z,9.87
2018-12-15T19:49:42.774Z,11.50
2018-12-15T19:52:13.073Z,9.10
2018-12-15T19:54:43.274Z,9.43
2018-12-15T19:57:13.717Z,9.43
2018-12-15T19:59:43.931Z,13.00
2018-12-15T20:02:14.151Z,9.67
2018-12-15T20:04:44.326Z,8.83
2018-12-15T20:07:14.613Z,9.17
2018-12-15T20:09:44.842Z,6.53
2018-12-15T20:12:15.032Z,9.40
2018-12-15T20:14:46.012Z,9.17
2018-12-15T20:17:16.313Z,12.20
2018-12-15T20:19:47.147Z,23.13
2018-12-15T20:22:17.552Z,21.00
2018-12-15T20:24:47.817Z,16.03
2018-12-15T20:27:18.078Z,23.97
2018-12-15T20:29:48.297Z,20.20
2018-12-15T20:32:18.566Z,15.90
2018-12-15T20:34:48.877Z,16.27
2018-12-15T20:37:19.244Z,21.83
2018-12-15T20:39:49.579Z,14.60
2018-12-15T20:42:19.839Z,21.23
2018-12-15T20:44:49.923Z,23.33
2018-12-15T20:47:20.161Z,25.73
2018-12-15T20:49:50.462Z,21.70
2018-12-15T20:52:20.726Z,25.83
2018-12-15T20:54:51.029Z,28.97
2018-12-15T20:57:21.222Z,35.53
2018-12-15T20:59:51.430Z,19.50
2018-12-15T21:02:21.870Z,12.50
2018-12-15T21:04:52.148Z,37.70
2018-12-15T21:07:22.422Z,36.70
2018-12-15T21:09:52.932Z,36.07
2018-12-15T21:12:23.220Z,39.77
2018-12-15T21:14:53.881Z,33.63
2018-12-15T21:17:24.472Z,28.73
2018-12-15T21:19:54.706Z,38.50
2018-12-15T21:22:24.880Z,32.37
2018-12-15T21:24:56.204Z,29.97
2018-12-15T21:27:26.449Z,24.80
2018-12-15T21:29:56.628Z,43.20
2018-12-15T21:32:26.860Z,30.57
2018-12-15T21:34:57.161Z,36.10
2018-12-15T21:37:27.561Z,30.30
2018-12-15T21:39:57.764Z,34.40
2018-12-15T21:42:28.061Z,31.57
2018-12-15T21:44:58.281Z,38.33
2018-12-15T21:47:28.730Z,44.57
2018-12-15T21:49:58.901Z,47.63
2018-12-15T21:52:29.125Z,26.17
2018-12-15T21:54:59.363Z,25.33
2018-12-15T21:57:29.647Z,27.73
2018-12-15T21:59:59.936Z,31.13
2018-12-15T22:02:30.020Z,25.30
2018-12-15T22:05:00.109Z,30.33
2018-12-15T22:07:30.574Z,30.27
2018-12-15T22:10:00.777Z,30.33
2018-12-15T22:12:30.940Z,25.73
2018-12-15T22:15:01.164Z,27.43
2018-12-15T22:17:32.126Z,29.40
2018-12-15T22:20:02.586Z,27.33
2018-12-15T22:22:32.775Z,29.80
2018-12-15T22:25:03.056Z,30.40
2018-12-15T22:27:33.296Z,31.07
2018-12-15T22:30:03.829Z,29.17
2018-12-15T22:32:33.939Z,25.90
2018-12-15T22:35:04.716Z,27.07
2018-12-15T22:37:34.962Z,23.23
2018-12-15T22:40:07.212Z,21.87
2018-12-15T22:42:37.425Z,19.27
2018-12-15T22:45:08.104Z,28.17
2018-12-15T22:47:38.296Z,26.73
2018-12-15T22:50:09.168Z,27.43
2018-12-15T22:52:39.395Z,24.83
2018-12-15T22:55:09.547Z,16.70
2018-12-15T22:57:39.707Z,24.87
2018-12-15T23:00:12.610Z,30.83
2018-12-15T23:02:44.870Z,15.00
2018-12-15T23:05:15.160Z,13.87
2018-12-15T23:07:45.528Z,14.10
2018-12-15T23:10:15.941Z,13.50
2018-12-15T23:12:46.203Z,15.13
2018-12-15T23:15:16.354Z,9.80
2018-12-15T23:17:46.548Z,11.07
2018-12-15T23:20:17.008Z,10.83
2018-12-15T23:22:47.232Z,11.13
2018-12-15T23:25:17.619Z,10.47
2018-12-15T23:27:47.798Z,11.37
2018-12-15T23:30:18.110Z,11.20
2018-12-15T23:32:48.274Z,9.20
2018-12-15T23:35:19.426Z,8.87
2018-12-15T23:37:49.684Z,8.80
2018-12-15T23:40:20.287Z,9.93
2018-12-15T23:42:51.068Z,9.27
2018-12-15T23:45:21.200Z,8.33
2018-12-15T23:47:51.400Z,9.27
2018-12-15T23:50:21.712Z,8.53
2018-12-15T23:52:52.514Z,9.13
2018-12-15T23:55:23.335Z,11.27
2018-12-15T23:57:53.601Z,10.00
